Time;durP1;ratioP1;P1;durP2;ratioP2;P2;SDS_P1;SDS_P2;PMS_P1;PMS_P2;Temp;Humidity;BMP_temperature;BMP_pressure;BME280_temperature;BME280_humidity;BME280_pressure;Samples;Min_cycle;Max_cycle;Signal;HPM_P1;HPM_P2
2023/10/25 00:01:28;;;;;;;3.90;1.90;;;;;;;;;;5093030;28;20073;-76
2023/10/25 00:03:53;;;;;;;3.67;1.80;;;;;;;;;;5112639;28;20135;-75
2023/10/25 00:06:19;;;;;;;3.20;1.93;;;;;;;;;;5113961;28;20046;-76
2023/10/25 00:08:45;;;;;;;4.17;2.13;;;;;;;;;;5097785;28;20028;-74
2023/10/25 00:11:10;;;;;;;3.87;2.03;;;;;;;;;;5110109;28;20032;-76
2023/10/25 00:13:36;;;;;;;3.93;1.90;;;;;;;;;;5078993;28;20489;-77
2023/10/25 00:16:03;;;;;;;2.40;2.00;;;;;;;;;;5077626;28;20035;-74
2023/10/25 00:18:29;;;;;;;4.83;2.10;;;;;;;;;;5061068;28;20139;-74
2023/10/25 00:20:55;;;;;;;6.50;2.70;;;;;;;;;;5061194;28;20043;-74
2023/10/25 00:23:22;;;;;;;6.97;2.20;;;;;;;;;;5060664;28;20032;-75
2023/10/25 00:25:48;;;;;;;3.37;2.10;;;;;;;;;;5077154;28;20059;-75
2023/10/25 00:28:14;;;;;;;4.23;2.37;;;;;;;;;;5056539;28;20478;-75
2023/10/25 00:30:40;;;;;;;3.07;2.10;;;;;;;;;;5039656;28;20044;-76
2023/10/25 00:33:05;;;;;;;4.70;2.27;;;;;;;;;;5056734;28;20437;-73
2023/10/25 00:35:31;;;;;;;4.07;2.17;;;;;;;;;;5072893;28;20067;-73
2023/10/25 00:37:57;;;;;;;6.90;2.70;;;;;;;;;;5023341;28;20051;-72
2023/10/25 00:40:23;;;;;;;4.67;2.20;;;;;;;;;;5056307;28;20121;-75
2023/10/25 00:42:49;;;;;;;7.30;2.20;;;;;;;;;;5056258;28;20048;-75
2023/10/25 00:45:15;;;;;;;7.13;2.37;;;;;;;;;;5023509;28;20062;-75
2023/10/25 00:47:41;;;;;;;7.00;2.50;;;;;;;;;;5039139;28;20491;-75
2023/10/25 00:50:09;;;;;;;5.97;2.40;;;;;;;;;;5022848;28;20043;-75
2023/10/25 00:52:35;;;;;;;6.13;2.50;;;;;;;;;;5039033;28;20545;-75
2023/10/25 00:55:01;;;;;;;4.97;2.47;;;;;;;;;;5038996;28;20072;-75
2023/10/25 00:57:28;;;;;;;5.40;2.17;;;;;;;;;;5023062;28;20036;-74
2023/10/25 00:59:53;;;;;;;4.63;2.80;;;;;;;;;;5052958;28;20050;-75
2023/10/25 01:02:19;;;;;;;4.83;2.27;;;;;;;;;;5094693;28;20040;-76
2023/10/25 01:04:45;;;;;;;3.27;2.30;;;;;;;;;;5060460;28;20491;-74
2023/10/25 01:07:11;;;;;;;4.43;2.50;;;;;;;;;;5076222;28;20340;-74
2023/10/25 01:09:36;;;;;;;3.37;2.20;;;;;;;;;;5059821;28;20093;-73
2023/10/25 01:12:02;;;;;;;2.57;2.20;;;;;;;;;;5060241;28;20036;-73
2023/10/25 01:14:31;;;;;;;3.47;2.07;;;;;;;;;;5059515;28;20512;-74
2023/10/25 01:16:57;;;;;;;4.93;2.20;;;;;;;;;;5076336;28;20028;-73
2023/10/25 01:19:23;;;;;;;5.97;2.00;;;;;;;;;;5076453;28;20031;-74
2023/10/25 01:21:49;;;;;;;2.73;1.80;;;;;;;;;;5094611;28;20051;-75
2023/10/25 01:24:14;;;;;;;3.73;1.80;;;;;;;;;;5060966;28;20082;-74
2023/10/25 01:26:40;;;;;;;4.00;2.20;;;;;;;;;;5077735;28;20036;-75
2023/10/25 01:29:06;;;;;;;6.27;2.30;;;;;;;;;;5076636;28;20028;-75
2023/10/25 01:31:31;;;;;;;2.23;1.73;;;;;;;;;;5076227;28;20093;-75
2023/10/25 01:33:57;;;;;;;3.97;2.10;;;;;;;;;;5059583;28;20036;-75
2023/10/25 01:36:22;;;;;;;2.90;1.97;;;;;;;;;;5076155;28;20032;-75
2023/10/25 01:38:48;;;;;;;3.87;2.00;;;;;;;;;;5076073;28;20035;-74
2023/10/25 01:41:17;;;;;;;2.80;2.20;;;;;;;;;;5094077;28;20097;-75
2023/10/25 01:43:43;;;;;;;3.13;2.10;;;;;;;;;;5059122;28;20032;-76
2023/10/25 01:46:09;;;;;;;3.70;1.90;;;;;;;;;;5076021;28;20071;-74
2023/10/25 01:48:38;;;;;;;2.53;1.77;;;;;;;;;;5075487;28;20067;-75
2023/10/25 01:51:08;;;;;;;3.67;2.07;;;;;;;;;;5075784;28;20028;-76
2023/10/25 01:53:34;;;;;;;4.47;1.92;;;;;;;;;;5058946;28;20545;-75
2023/10/25 01:56:00;;;;;;;3.20;1.80;;;;;;;;;;5075583;28;20433;-75
2023/10/25 01:58:26;;;;;;;2.83;1.53;;;;;;;;;;5076877;28;20036;-74
2023/10/25 02:00:52;;;;;;;2.63;1.50;;;;;;;;;;5095955;28;20357;-74
2023/10/25 02:03:17;;;;;;;3.43;1.80;;;;;;;;;;5112765;28;20031;-74
2023/10/25 02:05:43;;;;;;;1.67;1.30;;;;;;;;;;5112261;28;20039;-74
2023/10/25 02:08:10;;;;;;;5.37;1.90;;;;;;;;;;5095468;28;20134;-75
2023/10/25 02:10:36;;;;;;;3.30;1.80;;;;;;;;;;5095519;28;20070;-76
2023/10/25 02:13:02;;;;;;;4.67;1.50;;;;;;;;;;5095705;28;20446;-75
2023/10/25 02:15:28;;;;;;;3.20;1.63;;;;;;;;;;5112890;28;20031;-75
2023/10/25 02:17:54;;;;;;;2.27;1.70;;;;;;;;;;5095444;28;20027;-76
2023/10/25 02:20:20;;;;;;;2.73;1.70;;;;;;;;;;5112698;28;20047;-75
2023/10/25 02:22:46;;;;;;;2.80;1.93;;;;;;;;;;5078855;28;20091;-74
2023/10/25 02:25:11;;;;;;;2.47;1.97;;;;;;;;;;5078280;28;20386;-74
2023/10/25 02:27:37;;;;;;;2.73;1.90;;;;;;;;;;5094940;28;20028;-74
2023/10/25 02:30:04;;;;;;;5.10;2.07;;;;;;;;;;5095279;28;20172;-74
2023/10/25 02:32:31;;;;;;;3.23;2.00;;;;;;;;;;5095477;28;20049;-75
2023/10/25 02:34:57;;;;;;;2.33;1.70;;;;;;;;;;5095169;28;20145;-75
2023/10/25 02:37:23;;;;;;;2.23;1.50;;;;;;;;;;5095010;28;20036;-74
2023/10/25 02:39:49;;;;;;;4.53;1.77;;;;;;;;;;5112598;28;20035;-75
2023/10/25 02:42:15;;;;;;;1.90;1.60;;;;;;;;;;5095459;28;20046;-75
2023/10/25 02:44:41;;;;;;;3.70;1.73;;;;;;;;;;5078089;28;20077;-75
2023/10/25 02:47:07;;;;;;;3.70;1.67;;;;;;;;;;5094986;28;20035;-74
2023/10/25 02:49:33;;;;;;;2.50;1.60;;;;;;;;;;5077799;28;20096;-74
2023/10/25 02:51:59;;;;;;;1.80;1.30;;;;;;;;;;5094764;28;20050;-74
2023/10/25 02:54:25;;;;;;;3.23;1.57;;;;;;;;;;5112624;28;20374;-74
2023/10/25 02:56:50;;;;;;;2.27;1.70;;;;;;;;;;5095410;28;20568;-75
2023/10/25 02:59:16;;;;;;;6.77;2.30;;;;;;;;;;5095250;28;20131;-74
2023/10/25 03:01:42;;;;;;;2.60;1.87;;;;;;;;;;5078408;28;20035;-74
2023/10/25 03:04:08;;;;;;;4.10;2.17;;;;;;;;;;5094291;28;20272;-75
2023/10/25 03:06:33;;;;;;;4.53;2.10;;;;;;;;;;5094450;28;20035;-73
2023/10/25 03:08:59;;;;;;;2.03;1.80;;;;;;;;;;5094755;28;20039;-73
2023/10/25 03:11:25;;;;;;;4.30;2.23;;;;;;;;;;5094228;28;20041;-72
2023/10/25 03:13:52;;;;;;;3.63;1.60;;;;;;;;;;5094331;28;20039;-72
2023/10/25 03:16:18;;;;;;;5.97;2.03;;;;;;;;;;5111376;28;20565;-72
2023/10/25 03:18:43;;;;;;;2.90;2.00;;;;;;;;;;5094308;28;20142;-72
2023/10/25 03:21:09;;;;;;;3.43;2.30;;;;;;;;;;5077496;28;20116;-73
2023/10/25 03:23:35;;;;;;;6.00;1.83;;;;;;;;;;5094459;28;20096;-73
2023/10/25 03:26:05;;;;;;;6.03;1.70;;;;;;;;;;5077331;28;20065;-73
2023/10/25 03:28:31;;;;;;;3.77;2.00;;;;;;;;;;5077569;28;20043;-72
2023/10/25 03:30:57;;;;;;;4.13;1.87;;;;;;;;;;5077501;28;20028;-74
2023/10/25 03:33:23;;;;;;;6.83;1.77;;;;;;;;;;5077606;28;20135;-72
2023/10/25 03:35:52;;;;;;;2.93;2.00;;;;;;;;;;5110995;28;20048;-73
2023/10/25 03:38:18;;;;;;;4.50;2.00;;;;;;;;;;5077443;28;20038;-70
2023/10/25 03:40:44;;;;;;;3.47;1.90;;;;;;;;;;5094071;28;20122;-72
2023/10/25 03:43:10;;;;;;;2.37;2.17;;;;;;;;;;5111015;28;20130;-71
2023/10/25 03:45:36;;;;;;;2.30;1.80;;;;;;;;;;5110872;28;20118;-72
2023/10/25 03:48:02;;;;;;;2.00;1.80;;;;;;;;;;5094208;28;20051;-71
2023/10/25 03:50:28;;;;;;;3.17;1.80;;;;;;;;;;5094310;28;20028;-71
2023/10/25 03:52:54;;;;;;;6.70;1.90;;;;;;;;;;5094422;28;20123;-72
2023/10/25 03:55:20;;;;;;;5.77;2.03;;;;;;;;;;5110978;28;20081;-72
2023/10/25 03:57:47;;;;;;;4.60;1.90;;;;;;;;;;5111254;28;20035;-72
2023/10/25 04:00:13;;;;;;;6.33;2.00;;;;;;;;;;5111153;28;20046;-72
2023/10/25 04:02:40;;;;;;;3.50;1.83;;;;;;;;;;5077059;28;20040;-70
2023/10/25 04:05:06;;;;;;;3.13;1.80;;;;;;;;;;5093826;28;20059;-70
2023/10/25 04:07:32;;;;;;;6.00;2.10;;;;;;;;;;5077713;28;20044;-72
2023/10/25 04:09:57;;;;;;;8.07;2.10;;;;;;;;;;5089117;28;20058;-74
2023/10/25 04:12:24;;;;;;;3.30;2.00;;;;;;;;;;5077527;28;20042;-73
2023/10/25 04:14:50;;;;;;;4.63;1.70;;;;;;;;;;5110251;28;20104;-73
2023/10/25 04:17:17;;;;;;;4.00;2.13;;;;;;;;;;5076500;28;20032;-74
2023/10/25 04:19:45;;;;;;;3.20;1.73;;;;;;;;;;5111854;28;20046;-74
2023/10/25 04:22:13;;;;;;;7.20;2.20;;;;;;;;;;5110875;28;20039;-73
2023/10/25 04:24:40;;;;;;;4.50;2.40;;;;;;;;;;5112533;28;20043;-76
2023/10/25 04:27:08;;;;;;;6.60;2.13;;;;;;;;;;5076884;28;20051;-76
2023/10/25 04:29:33;;;;;;;2.57;1.90;;;;;;;;;;5076009;28;20039;-74
2023/10/25 04:31:59;;;;;;;7.83;2.20;;;;;;;;;;5041809;28;20078;-76
2023/10/25 04:34:25;;;;;;;3.67;2.30;;;;;;;;;;5058627;28;20185;-74
2023/10/25 04:36:51;;;;;;;6.63;1.60;;;;;;;;;;5041251;28;20037;-77
2023/10/25 04:39:18;;;;;;;2.33;1.57;;;;;;;;;;5058722;28;20416;-77
2023/10/25 04:41:44;;;;;;;4.97;2.20;;;;;;;;;;5058668;28;20595;-77
2023/10/25 04:44:10;;;;;;;4.93;2.20;;;;;;;;;;5041483;28;20040;-77
2023/10/25 04:46:35;;;;;;;11.23;5.60;;;;;;;;;;5057857;28;20097;-72
2023/10/25 04:49:01;;;;;;;4.63;2.80;;;;;;;;;;5041500;28;20043;-75
2023/10/25 04:51:27;;;;;;;7.70;2.73;;;;;;;;;;5077073;28;20051;-74
2023/10/25 04:53:53;;;;;;;3.87;2.07;;;;;;;;;;5063299;28;20045;-77
2023/10/25 04:56:23;;;;;;;4.83;2.10;;;;;;;;;;5102753;28;20036;-76
2023/10/25 04:58:49;;;;;;;5.47;2.40;;;;;;;;;;5063711;28;20310;-76
2023/10/25 05:01:14;;;;;;;5.40;2.20;;;;;;;;;;5058055;28;20138;-68
2023/10/25 05:03:44;;;;;;;3.80;1.90;;;;;;;;;;5057124;28;20135;-70
2023/10/25 05:06:10;;;;;;;11.50;2.40;;;;;;;;;;5057513;28;20124;-70
2023/10/25 05:08:36;;;;;;;3.23;2.10;;;;;;;;;;5057626;28;20522;-73
2023/10/25 05:11:03;;;;;;;5.20;2.70;;;;;;;;;;5057528;28;20181;-73
2023/10/25 05:13:30;;;;;;;5.50;2.17;;;;;;;;;;5073582;28;20132;-73
2023/10/25 05:15:56;;;;;;;13.00;2.90;;;;;;;;;;5057613;28;20497;-73
2023/10/25 05:18:22;;;;;;;4.57;2.20;;;;;;;;;;5073247;28;20139;-73
2023/10/25 05:20:56;;;;;;;5.47;2.27;;;;;;;;;;5092427;28;20036;-73
2023/10/25 05:23:23;;;;;;;4.47;1.90;;;;;;;;;;5092245;28;20043;-74
2023/10/25 05:25:48;;;;;;;3.50;1.63;;;;;;;;;;5058858;28;20521;-76
2023/10/25 05:28:14;;;;;;;9.07;2.00;;;;;;;;;;5059426;28;20043;-78
2023/10/25 05:30:40;;;;;;;3.33;1.97;;;;;;;;;;5074868;28;20718;-79
2023/10/25 05:33:07;;;;;;;4.00;1.90;;;;;;;;;;5075145;28;20366;-75
2023/10/25 05:35:32;;;;;;;4.33;2.17;;;;;;;;;;5058183;28;20032;-74
2023/10/25 05:37:59;;;;;;;4.73;2.00;;;;;;;;;;5058576;28;20043;-71
2023/10/25 05:40:26;;;;;;;3.57;1.90;;;;;;;;;;5075188;28;20032;-73
2023/10/25 05:42:54;;;;;;;7.13;2.33;;;;;;;;;;5091989;28;20036;-73
2023/10/25 05:45:20;;;;;;;4.10;1.93;;;;;;;;;;5091179;28;20047;-73
2023/10/25 05:47:45;;;;;;;3.03;2.00;;;;;;;;;;5091560;28;20093;-75
2023/10/25 05:50:11;;;;;;;5.30;2.00;;;;;;;;;;5074743;28;20478;-74
2023/10/25 05:52:44;;;;;;;5.60;2.50;;;;;;;;;;5074518;28;20117;-70
2023/10/25 05:55:13;;;;;;;5.80;2.17;;;;;;;;;;5074940;28;20039;-71
2023/10/25 05:57:39;;;;;;;4.97;2.10;;;;;;;;;;5074797;28;20616;-75
2023/10/25 06:00:05;;;;;;;8.83;3.47;;;;;;;;;;5091232;28;20056;-70
2023/10/25 06:02:33;;;;;;;3.30;2.40;;;;;;;;;;5089951;28;20467;-66
2023/10/25 06:05:00;;;;;;;4.10;2.37;;;;;;;;;;5088246;28;20055;-67
2023/10/25 06:07:26;;;;;;;8.33;2.47;;;;;;;;;;5095649;28;20054;-70
2023/10/25 06:09:52;;;;;;;7.17;3.20;;;;;;;;;;5109945;28;20031;-73
2023/10/25 06:12:20;;;;;;;7.73;2.63;;;;;;;;;;5091561;28;20150;-74
2023/10/25 06:14:46;;;;;;;10.87;2.90;;;;;;;;;;5092999;28;20556;-72
2023/10/25 06:17:12;;;;;;;7.00;3.03;;;;;;;;;;5075536;28;20133;-74
2023/10/25 06:19:37;;;;;;;9.20;2.93;;;;;;;;;;5092281;28;20027;-73
2023/10/25 06:22:03;;;;;;;8.80;3.40;;;;;;;;;;5070918;28;20439;-73
2023/10/25 06:24:29;;;;;;;5.30;2.43;;;;;;;;;;5099999;28;20435;-71
2023/10/25 06:26:55;;;;;;;4.10;2.50;;;;;;;;;;5085643;28;20130;-69
2023/10/25 06:29:21;;;;;;;7.27;3.30;;;;;;;;;;5108318;28;20031;-69
2023/10/25 06:31:51;;;;;;;7.63;3.20;;;;;;;;;;5111633;28;20502;-69
2023/10/25 06:34:18;;;;;;;6.07;3.10;;;;;;;;;;5107976;28;20036;-71
2023/10/25 06:36:44;;;;;;;4.93;3.03;;;;;;;;;;5082963;28;20028;-70
2023/10/25 06:39:10;;;;;;;11.70;4.30;;;;;;;;;;5088724;28;20024;-75
2023/10/25 06:41:39;;;;;;;10.37;4.23;;;;;;;;;;5089499;28;20040;-74
2023/10/25 06:44:05;;;;;;;11.67;4.73;;;;;;;;;;5080735;28;20024;-78
2023/10/25 06:46:31;;;;;;;5.93;2.97;;;;;;;;;;5085601;28;20181;-71
2023/10/25 06:48:58;;;;;;;8.97;3.87;;;;;;;;;;5080453;28;20027;-77
2023/10/25 06:51:27;;;;;;;4.57;2.50;;;;;;;;;;5079608;28;20055;-76
2023/10/25 06:53:53;;;;;;;3.47;2.40;;;;;;;;;;5017500;28;20048;-77
2023/10/25 06:56:20;;;;;;;7.53;2.80;;;;;;;;;;5012983;28;20049;-77
2023/10/25 06:58:48;;;;;;;3.93;2.67;;;;;;;;;;5012210;28;20037;-78
2023/10/25 07:01:18;;;;;;;2.83;2.27;;;;;;;;;;5012419;28;20491;-77
2023/10/25 07:03:47;;;;;;;3.77;2.30;;;;;;;;;;5013892;28;20550;-77
2023/10/25 07:06:15;;;;;;;4.87;2.33;;;;;;;;;;4996133;28;20053;-76
2023/10/25 07:08:42;;;;;;;7.57;2.40;;;;;;;;;;5011801;28;20447;-77
2023/10/25 07:11:07;;;;;;;4.13;2.67;;;;;;;;;;5020032;28;20049;-78
2023/10/25 07:13:33;;;;;;;2.57;2.27;;;;;;;;;;5039612;28;20112;-76
2023/10/25 07:15:59;;;;;;;10.47;2.67;;;;;;;;;;5025701;28;20040;-72
2023/10/25 07:18:25;;;;;;;3.60;2.70;;;;;;;;;;5037742;28;20052;-78
2023/10/25 07:20:50;;;;;;;3.10;2.40;;;;;;;;;;5007352;28;20067;-79
2023/10/25 07:23:17;;;;;;;5.13;2.00;;;;;;;;;;5034955;28;20092;-78
2023/10/25 07:25:44;;;;;;;4.03;2.50;;;;;;;;;;5091315;28;20079;-81
2023/10/25 07:28:10;;;;;;;3.57;2.27;;;;;;;;;;5099231;28;20680;-80
2023/10/25 07:30:36;;;;;;;3.53;2.30;;;;;;;;;;5085991;28;20039;-81
2023/10/25 07:33:03;;;;;;;2.70;1.90;;;;;;;;;;5069019;28;20322;-76
2023/10/25 07:35:28;;;;;;;2.77;2.10;;;;;;;;;;5089548;28;20035;-72
2023/10/25 07:37:54;;;;;;;6.93;3.23;;;;;;;;;;5090051;28;20532;-77
2023/10/25 07:40:19;;;;;;;5.07;2.10;;;;;;;;;;5092360;28;20093;-75
2023/10/25 07:42:46;;;;;;;4.03;2.20;;;;;;;;;;5090313;28;20502;-78
2023/10/25 07:45:12;;;;;;;5.60;2.27;;;;;;;;;;5055984;28;20046;-71
2023/10/25 07:47:38;;;;;;;7.67;2.50;;;;;;;;;;5096770;28;20042;-70
2023/10/25 07:50:05;;;;;;;14.43;2.87;;;;;;;;;;5075804;28;20042;-70
2023/10/25 07:52:34;;;;;;;4.07;2.83;;;;;;;;;;5085161;28;20161;-74
2023/10/25 07:55:03;;;;;;;3.50;2.80;;;;;;;;;;5031381;28;20100;-69
2023/10/25 07:57:33;;;;;;;8.63;3.37;;;;;;;;;;5016356;28;20033;-69
2023/10/25 07:59:59;;;;;;;5.67;3.07;;;;;;;;;;5035370;28;20045;-68
2023/10/25 08:02:26;;;;;;;8.03;3.37;;;;;;;;;;5002831;28;20133;-70
2023/10/25 08:04:52;;;;;;;8.47;3.30;;;;;;;;;;5051249;28;20060;-69
2023/10/25 08:07:18;;;;;;;4.03;2.50;;;;;;;;;;5035300;28;20151;-68
2023/10/25 08:09:46;;;;;;;7.23;2.67;;;;;;;;;;5002204;28;20126;-69
2023/10/25 08:12:12;;;;;;;4.93;2.67;;;;;;;;;;5034116;28;20036;-71
2023/10/25 08:14:38;;;;;;;6.33;3.47;;;;;;;;;;5018275;28;20037;-71
2023/10/25 08:17:04;;;;;;;12.27;3.73;;;;;;;;;;5018588;28;20060;-72
2023/10/25 08:19:33;;;;;;;5.73;3.47;;;;;;;;;;5034791;28;20037;-71
2023/10/25 08:21:59;;;;;;;5.17;3.00;;;;;;;;;;5018519;28;20190;-71
2023/10/25 08:24:24;;;;;;;5.93;3.20;;;;;;;;;;5035033;28;20143;-72
2023/10/25 08:26:52;;;;;;;12.53;6.13;;;;;;;;;;5017752;28;20103;-72
2023/10/25 08:29:18;;;;;;;9.87;4.23;;;;;;;;;;5018154;28;20040;-71
2023/10/25 08:31:46;;;;;;;5.67;3.27;;;;;;;;;;5039464;28;20055;-71
2023/10/25 08:34:13;;;;;;;10.10;4.00;;;;;;;;;;5071301;28;20051;-71
2023/10/25 08:36:39;;;;;;;8.97;3.33;;;;;;;;;;5037458;28;20044;-72
2023/10/25 08:39:05;;;;;;;6.37;2.40;;;;;;;;;;5075287;28;20046;-71
2023/10/25 08:41:33;;;;;;;3.90;2.80;;;;;;;;;;5092288;28;20141;-73
2023/10/25 08:43:59;;;;;;;4.63;2.43;;;;;;;;;;5077238;28;20088;-72
2023/10/25 08:46:25;;;;;;;9.10;4.07;;;;;;;;;;5102962;28;20100;-73
2023/10/25 08:48:53;;;;;;;6.80;2.70;;;;;;;;;;5079012;28;20112;-71
2023/10/25 08:51:20;;;;;;;6.33;2.70;;;;;;;;;;5112642;28;20569;-71
2023/10/25 08:53:46;;;;;;;3.97;2.73;;;;;;;;;;5061625;28;20327;-71
2023/10/25 08:56:11;;;;;;;9.33;3.03;;;;;;;;;;5086264;28;20028;-72
2023/10/25 08:58:37;;;;;;;13.23;6.20;;;;;;;;;;5077680;28;20515;-73
2023/10/25 09:01:03;;;;;;;4.83;3.17;;;;;;;;;;5075494;28;20392;-72
2023/10/25 09:03:32;;;;;;;9.30;3.83;;;;;;;;;;5095202;28;20059;-69
2023/10/25 09:05:59;;;;;;;10.13;5.03;;;;;;;;;;5095722;28;20055;-71
2023/10/25 09:08:26;;;;;;;16.93;3.47;;;;;;;;;;5078793;28;20085;-73
2023/10/25 09:11:07;;;;;;;4.97;3.00;;;;;;;;;;5093495;28;20035;-73
2023/10/25 09:13:34;;;;;;;6.57;3.03;;;;;;;;;;5095091;28;20031;-72
2023/10/25 09:16:04;;;;;;;4.67;2.97;;;;;;;;;;5078247;28;20124;-74
2023/10/25 09:18:31;;;;;;;6.03;2.40;;;;;;;;;;5053199;28;20044;-72
2023/10/25 09:20:59;;;;;;;2.90;2.30;;;;;;;;;;5037206;28;20385;-72
2023/10/25 09:23:24;;;;;;;9.13;2.53;;;;;;;;;;5037348;28;20044;-73
2023/10/25 09:25:51;;;;;;;3.83;2.40;;;;;;;;;;5053167;28;20060;-71
2023/10/25 09:28:30;;;;;;;4.80;2.90;;;;;;;;;;5020174;28;20044;-73
2023/10/25 09:30:59;;;;;;;5.67;2.43;;;;;;;;;;5053451;28;20044;-74
2023/10/25 09:33:29;;;;;;;6.57;3.03;;;;;;;;;;5050837;28;20039;-72
2023/10/25 09:35:56;;;;;;;;;;;;;;;;;;5073560;28;20043;-74
2023/10/25 09:38:22;;;;;;;4.47;2.40;;;;;;;;;;5036214;28;19908;-72
2023/10/25 09:40:48;;;;;;;2.23;2.03;;;;;;;;;;5036539;28;20044;-73
2023/10/25 09:43:15;;;;;;;4.10;2.50;;;;;;;;;;5063388;28;20059;-74
2023/10/25 09:45:42;;;;;;;6.37;2.70;;;;;;;;;;5039168;28;20040;-73
2023/10/25 09:48:10;;;;;;;5.63;3.00;;;;;;;;;;5039081;28;20020;-72
2023/10/25 09:50:37;;;;;;;4.63;2.50;;;;;;;;;;5083686;28;20036;-72
2023/10/25 09:53:11;;;;;;;5.43;2.57;;;;;;;;;;5101926;28;20045;-72
2023/10/25 09:55:39;;;;;;;4.80;2.43;;;;;;;;;;5101274;28;20350;-73
2023/10/25 09:58:10;;;;;;;5.33;3.27;;;;;;;;;;5071853;28;20046;-74
2023/10/25 10:00:36;;;;;;;6.67;2.60;;;;;;;;;;5100659;28;20097;-73
2023/10/25 10:03:02;;;;;;;4.97;2.37;;;;;;;;;;5086803;28;20474;-73
2023/10/25 10:05:31;;;;;;;4.33;2.50;;;;;;;;;;5065503;28;20080;-73
2023/10/25 10:08:08;;;;;;;6.00;3.10;;;;;;;;;;5057330;28;20055;-73
2023/10/25 10:10:39;;;;;;;6.23;3.27;;;;;;;;;;5055792;28;20047;-73
2023/10/25 10:13:05;;;;;;;;;;;;;;;;;;5056003;28;20043;-73
2023/10/25 10:15:49;;;;;;;6.00;3.20;;;;;;;;;;5050656;28;19983;-72
2023/10/25 10:18:14;;;;;;;5.13;3.13;;;;;;;;;;5068855;28;20039;-75
2023/10/25 10:20:41;;;;;;;4.53;2.80;;;;;;;;;;5054621;28;20182;-72
2023/10/25 10:23:07;;;;;;;7.93;3.20;;;;;;;;;;5081503;28;20114;-72
2023/10/25 10:25:42;;;;;;;14.40;3.73;;;;;;;;;;5058875;28;20051;-73
2023/10/25 10:28:09;;;;;;;4.80;2.80;;;;;;;;;;5092558;28;20044;-74
2023/10/25 10:30:41;;;;;;;4.77;2.60;;;;;;;;;;5075512;28;20426;-72
2023/10/25 10:33:13;;;;;;;6.83;2.67;;;;;;;;;;5074483;28;20035;-73
2023/10/25 10:35:48;;;;;;;6.10;3.17;;;;;;;;;;5075803;28;20039;-72
2023/10/25 10:38:13;;;;;;;4.93;2.80;;;;;;;;;;5076603;28;20062;-73
2023/10/25 10:40:39;;;;;;;8.60;2.93;;;;;;;;;;5110164;28;20477;-73
2023/10/25 10:43:07;;;;;;;5.70;2.77;;;;;;;;;;5076777;28;20028;-74
2023/10/25 10:45:33;;;;;;;4.95;2.85;;;;;;;;;;5093059;28;20104;-74
2023/10/25 10:48:21;;;;;;;7.88;3.50;;;;;;;;;;5111295;28;20053;-71
2023/10/25 10:50:47;;;;;;;5.47;2.50;;;;;;;;;;5110051;28;20461;-72
2023/10/25 10:53:14;;;;;;;7.33;2.60;;;;;;;;;;5093192;28;20160;-73
2023/10/25 10:55:40;;;;;;;5.03;2.63;;;;;;;;;;5093382;28;20043;-73
2023/10/25 10:58:06;;;;;;;7.47;2.90;;;;;;;;;;5092902;28;20043;-72
2023/10/25 11:00:32;;;;;;;3.67;2.37;;;;;;;;;;5075923;28;20032;-70
2023/10/25 11:02:59;;;;;;;8.60;2.90;;;;;;;;;;5093220;28;20067;-72
2023/10/25 11:05:25;;;;;;;7.77;2.53;;;;;;;;;;5110076;28;20059;-72
2023/10/25 11:07:51;;;;;;;6.00;2.67;;;;;;;;;;5072122;28;20035;-73
2023/10/25 11:10:18;;;;;;;8.15;3.55;;;;;;;;;;5055318;28;20458;-74
2023/10/25 11:12:45;;;;;;;7.77;3.27;;;;;;;;;;5071979;28;20051;-72
2023/10/25 11:15:11;;;;;;;4.77;2.70;;;;;;;;;;5072565;28;20040;-73
2023/10/25 11:17:37;;;;;;;8.77;2.80;;;;;;;;;;5056137;28;20362;-70
2023/10/25 11:20:03;;;;;;;5.03;2.60;;;;;;;;;;5073114;28;20089;-72
2023/10/25 11:22:35;;;;;;;10.63;4.10;;;;;;;;;;5105977;28;20042;-71
2023/10/25 11:25:09;;;;;;;7.45;3.13;;;;;;;;;;5084553;28;20048;-73
2023/10/25 11:27:35;;;;;;;5.40;2.77;;;;;;;;;;5073111;28;20024;-78
2023/10/25 11:30:01;;;;;;;8.30;2.80;;;;;;;;;;5057889;28;20047;-78
2023/10/25 11:32:31;;;;;;;8.77;3.23;;;;;;;;;;5074270;28;20050;-73
2023/10/25 11:34:59;;;;;;;4.73;3.00;;;;;;;;;;5074081;28;20040;-75
2023/10/25 11:37:40;;;;;;;10.10;3.73;;;;;;;;;;5078456;28;20060;-72
2023/10/25 11:40:07;;;;;;;5.17;2.70;;;;;;;;;;5061048;28;20036;-77
2023/10/25 11:42:33;;;;;;;6.77;3.10;;;;;;;;;;5077046;28;20032;-74
2023/10/25 11:45:00;;;;;;;5.50;3.07;;;;;;;;;;5061405;28;20071;-80
2023/10/25 11:47:32;;;;;;;5.50;2.97;;;;;;;;;;5098649;28;20036;-77
2023/10/25 11:49:58;;;;;;;9.37;2.83;;;;;;;;;;5079176;28;20047;-79
2023/10/25 11:52:25;;;;;;;4.53;2.50;;;;;;;;;;5063084;28;20085;-74
2023/10/25 11:54:56;;;;;;;7.60;2.87;;;;;;;;;;5061370;28;20070;-80
2023/10/25 11:57:30;;;;;;;8.33;3.17;;;;;;;;;;5077251;28;20489;-75
2023/10/25 11:59:55;;;;;;;6.93;3.20;;;;;;;;;;5110670;28;20047;-75
2023/10/25 12:02:22;;;;;;;7.33;3.27;;;;;;;;;;5093341;28;20036;-82
2023/10/25 12:04:51;;;;;;;5.60;2.90;;;;;;;;;;5092646;28;20052;-74
2023/10/25 12:07:17;;;;;;;5.77;3.10;;;;;;;;;;5076157;28;20059;-76
2023/10/25 12:09:45;;;;;;;13.83;3.10;;;;;;;;;;5076349;28;20044;-76
2023/10/25 12:12:11;;;;;;;7.23;3.23;;;;;;;;;;5059222;28;20028;-79
2023/10/25 12:14:37;;;;;;;4.80;2.63;;;;;;;;;;5059493;28;20454;-73
2023/10/25 12:17:04;;;;;;;5.20;3.30;;;;;;;;;;5057576;28;20038;-74
2023/10/25 12:19:35;;;;;;;6.83;2.97;;;;;;;;;;5037431;28;20522;-77
2023/10/25 12:22:08;;;;;;;5.97;3.13;;;;;;;;;;5046999;28;20040;-76
2023/10/25 12:24:36;;;;;;;5.70;2.57;;;;;;;;;;5044085;28;20060;-77
2023/10/25 12:27:02;;;;;;;4.60;2.73;;;;;;;;;;5048809;28;20040;-77
2023/10/25 12:29:28;;;;;;;4.00;2.50;;;;;;;;;;5064881;28;20219;-78
2023/10/25 12:31:54;;;;;;;7.00;2.77;;;;;;;;;;5064880;28;20056;-81
2023/10/25 12:34:20;;;;;;;6.13;3.10;;;;;;;;;;5036896;28;20084;-78
2023/10/25 12:36:45;;;;;;;10.40;3.47;;;;;;;;;;5001951;28;20052;-76
2023/10/25 12:39:11;;;;;;;10.00;3.33;;;;;;;;;;5018941;28;20048;-77
2023/10/25 12:41:37;;;;;;;5.00;2.83;;;;;;;;;;5018630;28;20232;-75
2023/10/25 12:44:08;;;;;;;11.67;2.93;;;;;;;;;;5049864;28;20076;-75
2023/10/25 12:46:35;;;;;;;6.23;3.20;;;;;;;;;;4997807;28;20408;-75
2023/10/25 12:49:03;;;;;;;6.00;2.97;;;;;;;;;;4982294;28;20083;-74
2023/10/25 12:51:30;;;;;;;6.57;3.40;;;;;;;;;;5051411;28;20047;-74
2023/10/25 12:53:56;;;;;;;10.13;4.63;;;;;;;;;;5054745;28;20036;-74
2023/10/25 12:56:30;;;;;;;3.70;2.70;;;;;;;;;;5013903;28;20052;-74
2023/10/25 12:58:56;;;;;;;10.47;2.80;;;;;;;;;;4997102;28;20530;-73
2023/10/25 13:01:24;;;;;;;3.63;2.73;;;;;;;;;;5030339;28;20068;-75
2023/10/25 13:03:52;;;;;;;4.80;2.97;;;;;;;;;;4981955;28;20085;-76
2023/10/25 13:06:20;;;;;;;6.83;2.70;;;;;;;;;;4981386;28;20136;-75
2023/10/25 13:08:45;;;;;;;7.80;3.10;;;;;;;;;;5013684;28;20049;-74
2023/10/25 13:11:13;;;;;;;9.80;3.47;;;;;;;;;;4978060;28;20183;-74
2023/10/25 13:13:45;;;;;;;4.93;2.67;;;;;;;;;;4994988;28;20046;-74
2023/10/25 13:16:11;;;;;;;6.00;3.47;;;;;;;;;;4994628;28;20385;-74
2023/10/25 13:18:37;;;;;;;4.77;3.03;;;;;;;;;;4978087;28;20046;-74
2023/10/25 13:21:03;;;;;;;4.20;3.30;;;;;;;;;;5011240;28;20049;-75
2023/10/25 13:23:29;;;;;;;6.70;3.20;;;;;;;;;;5011226;28;20248;-74
2023/10/25 13:25:56;;;;;;;8.53;3.80;;;;;;;;;;5006778;28;20068;-74
2023/10/25 13:28:23;;;;;;;9.27;3.67;;;;;;;;;;5048649;28;20400;-75
2023/10/25 13:30:48;;;;;;;10.23;3.40;;;;;;;;;;5053212;28;20045;-76
2023/10/25 13:33:14;;;;;;;8.60;3.23;;;;;;;;;;5053414;28;20032;-75
2023/10/25 13:35:40;;;;;;;6.87;2.97;;;;;;;;;;5053150;28;20048;-74
2023/10/25 13:38:05;;;;;;;12.03;3.27;;;;;;;;;;5037169;28;20048;-79
2023/10/25 13:40:31;;;;;;;25.63;3.20;;;;;;;;;;5030932;28;20190;-71
2023/10/25 13:42:58;;;;;;;5.60;3.13;;;;;;;;;;5045607;28;20032;-76
2023/10/25 13:45:23;;;;;;;10.63;3.47;;;;;;;;;;5074370;28;20393;-74
2023/10/25 13:47:49;;;;;;;9.33;3.10;;;;;;;;;;5074559;28;20035;-75
2023/10/25 13:50:15;;;;;;;6.27;2.83;;;;;;;;;;5077181;28;20084;-72
2023/10/25 13:52:41;;;;;;;6.43;3.03;;;;;;;;;;5094520;28;20035;-72
2023/10/25 13:55:07;;;;;;;4.00;2.67;;;;;;;;;;5078121;28;20044;-75
2023/10/25 13:57:34;;;;;;;4.50;2.63;;;;;;;;;;5095011;28;20039;-77
2023/10/25 14:00:00;;;;;;;4.47;2.70;;;;;;;;;;5060423;28;20073;-69
2023/10/25 14:02:27;;;;;;;7.57;2.80;;;;;;;;;;5095110;28;20481;-75
2023/10/25 14:04:52;;;;;;;7.00;2.80;;;;;;;;;;5095342;28;20081;-77
2023/10/25 14:07:18;;;;;;;6.87;2.80;;;;;;;;;;5114825;28;20449;-77
2023/10/25 14:09:44;;;;;;;5.30;3.10;;;;;;;;;;5079724;28;20494;-77
2023/10/25 14:12:10;;;;;;;5.67;2.97;;;;;;;;;;5112916;28;20382;-77
2023/10/25 14:14:35;;;;;;;6.57;3.00;;;;;;;;;;5078736;28;20028;-74
2023/10/25 14:17:01;;;;;;;5.40;3.23;;;;;;;;;;5116733;28;20028;-73
2023/10/25 14:19:27;;;;;;;6.53;3.63;;;;;;;;;;5115194;28;20031;-76
2023/10/25 14:21:52;;;;;;;5.97;3.20;;;;;;;;;;5081235;28;20036;-74
2023/10/25 14:24:19;;;;;;;11.40;3.70;;;;;;;;;;5096821;28;20042;-75
2023/10/25 14:26:45;;;;;;;9.50;3.37;;;;;;;;;;5076556;28;20032;-76
2023/10/25 14:29:11;;;;;;;9.43;3.60;;;;;;;;;;5095455;28;20645;-75
2023/10/25 14:31:37;;;;;;;10.27;3.40;;;;;;;;;;5076613;28;20120;-74
2023/10/25 14:34:03;;;;;;;7.80;3.50;;;;;;;;;;5057490;28;20131;-75
2023/10/25 14:36:29;;;;;;;6.87;3.97;;;;;;;;;;5074514;28;20142;-77
2023/10/25 14:38:57;;;;;;;4.70;2.87;;;;;;;;;;5057283;28;20039;-75
2023/10/25 14:41:23;;;;;;;7.87;3.33;;;;;;;;;;5090675;28;20449;-75